sensor_id;sensor_type;location;lat;lon;timestamp;temperature;humidity
12276;DHT22;6200;48.144;11.424;2022-10-29T00:02:23;13.90;99.90
12276;DHT22;6200;48.144;11.424;2022-10-29T00:04:48;13.80;99.90
12276;DHT22;6200;48.144;11.424;2022-10-29T00:07:14;13.80;99.90
12276;DHT22;6200;48.144;11.424;2022-10-29T00:09:39;13.70;99.90
12276;DHT22;6200;48.144;11.424;2022-10-29T00:12:05;13.70;99.90
12276;DHT22;6200;48.144;11.424;2022-10-29T00:14:31;13.60;99.90
12276;DHT22;6200;48.144;11.424;2022-10-29T00:16:56;13.60;99.90
12276;DHT22;6200;48.144;11.424;2022-10-29T00:19:22;13.60;99.90
12276;DHT22;6200;48.144;11.424;2022-10-29T00:21:50;13.60;99.90
12276;DHT22;6200;48.144;11.424;2022-10-29T00:24:16;13.50;99.90
12276;DHT22;6200;48.144;11.424;2022-10-29T00:26:42;13.50;99.90
12276;DHT22;6200;48.144;11.424;2022-10-29T00:29:07;13.50;99.90
12276;DHT22;6200;48.144;11.424;2022-10-29T00:31:33;13.50;99.90
12276;DHT22;6200;48.144;11.424;2022-10-29T00:33:58;13.40;99.90
12276;DHT22;6200;48.144;11.424;2022-10-29T00:36:27;13.50;99.90
12276;DHT22;6200;48.144;11.424;2022-10-29T00:38:53;13.40;99.90
12276;DHT22;6200;48.144;11.424;2022-10-29T00:41:28;13.40;99.90
12276;DHT22;6200;48.144;11.424;2022-10-29T00:46:51;13.30;99.90
12276;DHT22;6200;48.144;11.424;2022-10-29T00:49:17;13.30;99.90
12276;DHT22;6200;48.144;11.424;2022-10-29T00:51:44;13.30;99.90
12276;DHT22;6200;48.144;11.424;2022-10-29T00:54:12;13.30;99.90
12276;DHT22;6200;48.144;11.424;2022-10-29T00:56:43;13.20;99.90
12276;DHT22;6200;48.144;11.424;2022-10-29T00:59:11;13.20;99.90
12276;DHT22;6200;48.144;11.424;2022-10-29T01:01:37;13.20;99.90
12276;DHT22;6200;48.144;11.424;2022-10-29T01:04:03;13.10;99.90
12276;DHT22;6200;48.144;11.424;2022-10-29T01:06:30;13.10;99.90
12276;DHT22;6200;48.144;11.424;2022-10-29T01:08:56;13.10;99.90
12276;DHT22;6200;48.144;11.424;2022-10-29T01:20:34;12.90;99.90
12276;DHT22;6200;48.144;11.424;2022-10-29T01:26:13;12.90;99.90
12276;DHT22;6200;48.144;11.424;2022-10-29T01:29:08;12.80;99.90
12276;DHT22;6200;48.144;11.424;2022-10-29T01:31:47;12.80;99.90
12276;DHT22;6200;48.144;11.424;2022-10-29T01:34:21;12.80;99.90
12276;DHT22;6200;48.144;11.424;2022-10-29T01:37:04;12.80;99.90
12276;DHT22;6200;48.144;11.424;2022-10-29T01:39:49;12.70;99.90
12276;DHT22;6200;48.144;11.424;2022-10-29T01:42:27;12.70;99.90
12276;DHT22;6200;48.144;11.424;2022-10-29T01:45:05;12.60;99.90
12276;DHT22;6200;48.144;11.424;2022-10-29T01:47:41;12.60;99.90
12276;DHT22;6200;48.144;11.424;2022-10-29T01:50:12;12.60;99.90
12276;DHT22;6200;48.144;11.424;2022-10-29T01:52:40;12.50;99.90
12276;DHT22;6200;48.144;11.424;2022-10-29T01:55:07;12.60;99.90
12276;DHT22;6200;48.144;11.424;2022-10-29T01:57:37;12.50;99.90
12276;DHT22;6200;48.144;11.424;2022-10-29T02:00:14;12.50;99.90
12276;DHT22;6200;48.144;11.424;2022-10-29T02:03:00;12.50;99.90
12276;DHT22;6200;48.144;11.424;2022-10-29T02:08:28;12.50;99.90
12276;DHT22;6200;48.144;11.424;2022-10-29T02:13:47;12.50;99.90
12276;DHT22;6200;48.144;11.424;2022-10-29T02:16:15;12.50;99.90
12276;DHT22;6200;48.144;11.424;2022-10-29T02:18:50;12.50;99.90
12276;DHT22;6200;48.144;11.424;2022-10-29T02:21:18;12.50;99.90
12276;DHT22;6200;48.144;11.424;2022-10-29T02:23:44;12.50;99.90
12276;DHT22;6200;48.144;11.424;2022-10-29T02:26:10;12.40;99.90
12276;DHT22;6200;48.144;11.424;2022-10-29T02:28:36;12.40;99.90
12276;DHT22;6200;48.144;11.424;2022-10-29T02:31:01;12.40;99.90
12276;DHT22;6200;48.144;11.424;2022-10-29T02:33:27;12.30;99.90
12276;DHT22;6200;48.144;11.424;2022-10-29T02:35:52;12.40;99.90
12276;DHT22;6200;48.144;11.424;2022-10-29T02:38:18;12.30;99.90
12276;DHT22;6200;48.144;11.424;2022-10-29T02:40:44;12.40;99.90
12276;DHT22;6200;48.144;11.424;2022-10-29T02:43:09;12.30;99.90
12276;DHT22;6200;48.144;11.424;2022-10-29T02:45:35;12.30;99.90
12276;DHT22;6200;48.144;11.424;2022-10-29T02:48:00;12.30;99.90
12276;DHT22;6200;48.144;11.424;2022-10-29T02:50:26;13.50;99.90
12276;DHT22;6200;48.144;11.424;2022-10-29T02:52:51;12.30;99.90
12276;DHT22;6200;48.144;11.424;2022-10-29T02:55:17;12.20;99.90
12276;DHT22;6200;48.144;11.424;2022-10-29T02:57:43;12.20;99.90
12276;DHT22;6200;48.144;11.424;2022-10-29T03:00:09;12.20;99.90
12276;DHT22;6200;48.144;11.424;2022-10-29T03:02:35;12.20;99.90
12276;DHT22;6200;48.144;11.424;2022-10-29T03:05:01;12.20;99.90
12276;DHT22;6200;48.144;11.424;2022-10-29T03:07:26;12.10;99.90
12276;DHT22;6200;48.144;11.424;2022-10-29T03:09:52;12.10;99.90
12276;DHT22;6200;48.144;11.424;2022-10-29T03:12:17;12.10;99.90
12276;DHT22;6200;48.144;11.424;2022-10-29T03:14:43;12.10;99.90
12276;DHT22;6200;48.144;11.424;2022-10-29T03:17:08;12.10;99.90
12276;DHT22;6200;48.144;11.424;2022-10-29T03:19:34;12.10;99.90
12276;DHT22;6200;48.144;11.424;2022-10-29T03:22:00;12.10;99.90
12276;DHT22;6200;48.144;11.424;2022-10-29T03:24:25;12.10;99.90
12276;DHT22;6200;48.144;11.424;2022-10-29T03:26:51;12.10;99.90
12276;DHT22;6200;48.144;11.424;2022-10-29T03:29:16;12.00;99.90
12276;DHT22;6200;48.144;11.424;2022-10-29T03:31:42;12.10;99.90
12276;DHT22;6200;48.144;11.424;2022-10-29T03:34:07;12.10;99.90
12276;DHT22;6200;48.144;11.424;2022-10-29T03:36:33;12.10;99.90
12276;DHT22;6200;48.144;11.424;2022-10-29T03:38:58;12.10;99.90
12276;DHT22;6200;48.144;11.424;2022-10-29T03:41:24;12.10;99.90
12276;DHT22;6200;48.144;11.424;2022-10-29T03:43:49;12.10;99.90
12276;DHT22;6200;48.144;11.424;2022-10-29T03:46:15;12.10;99.90
12276;DHT22;6200;48.144;11.424;2022-10-29T03:48:40;12.10;99.90
12276;DHT22;6200;48.144;11.424;2022-10-29T03:51:06;12.10;99.90
12276;DHT22;6200;48.144;11.424;2022-10-29T03:53:33;12.00;99.90
12276;DHT22;6200;48.144;11.424;2022-10-29T03:56:00;12.10;99.90
12276;DHT22;6200;48.144;11.424;2022-10-29T03:58:26;12.00;99.90
12276;DHT22;6200;48.144;11.424;2022-10-29T04:00:56;12.00;99.90
12276;DHT22;6200;48.144;11.424;2022-10-29T04:03:22;12.10;99.90
12276;DHT22;6200;48.144;11.424;2022-10-29T04:05:48;12.10;99.90
12276;DHT22;6200;48.144;11.424;2022-10-29T04:08:13;12.10;99.90
12276;DHT22;6200;48.144;11.424;2022-10-29T04:10:45;12.20;99.90
12276;DHT22;6200;48.144;11.424;2022-10-29T04:13:12;12.20;99.90
12276;DHT22;6200;48.144;11.424;2022-10-29T04:15:38;12.20;99.90
12276;DHT22;6200;48.144;11.424;2022-10-29T04:18:04;12.20;99.90
12276;DHT22;6200;48.144;11.424;2022-10-29T04:20:29;12.30;99.90
12276;DHT22;6200;48.144;11.424;2022-10-29T04:22:55;12.30;99.90
12276;DHT22;6200;48.144;11.424;2022-10-29T04:25:20;12.30;99.90
12276;DHT22;6200;48.144;11.424;2022-10-29T04:27:46;12.30;99.90
12276;DHT22;6200;48.144;11.424;2022-10-29T04:30:11;12.30;99.90
12276;DHT22;6200;48.144;11.424;2022-10-29T04:32:37;12.30;99.90
12276;DHT22;6200;48.144;11.424;2022-10-29T04:35:03;12.30;99.90
12276;DHT22;6200;48.144;11.424;2022-10-29T04:37:28;12.40;99.90
12276;DHT22;6200;48.144;11.424;2022-10-29T04:39:54;12.40;99.90
12276;DHT22;6200;48.144;11.424;2022-10-29T04:42:20;12.40;99.90
12276;DHT22;6200;48.144;11.424;2022-10-29T04:44:45;12.40;99.90
12276;DHT22;6200;48.144;11.424;2022-10-29T04:47:11;12.40;99.90
12276;DHT22;6200;48.144;11.424;2022-10-29T04:49:36;12.40;99.90
12276;DHT22;6200;48.144;11.424;2022-10-29T04:52:02;12.40;99.90
12276;DHT22;6200;48.144;11.424;2022-10-29T04:54:28;12.40;99.90
12276;DHT22;6200;48.144;11.424;2022-10-29T04:56:53;12.50;99.90
12276;DHT22;6200;48.144;11.424;2022-10-29T04:59:19;12.40;99.90
12276;DHT22;6200;48.144;11.424;2022-10-29T05:01:44;12.40;99.90
12276;DHT22;6200;48.144;11.424;2022-10-29T05:04:10;12.40;99.90
12276;DHT22;6200;48.144;11.424;2022-10-29T05:06:35;12.40;99.90
12276;DHT22;6200;48.144;11.424;2022-10-29T05:09:01;12.40;99.90
12276;DHT22;6200;48.144;11.424;2022-10-29T05:11:26;12.40;99.90
12276;DHT22;6200;48.144;11.424;2022-10-29T05:13:52;12.40;99.90
12276;DHT22;6200;48.144;11.424;2022-10-29T05:16:17;12.40;99.90
12276;DHT22;6200;48.144;11.424;2022-10-29T05:18:43;12.30;99.90
12276;DHT22;6200;48.144;11.424;2022-10-29T05:21:09;12.30;99.90
12276;DHT22;6200;48.144;11.424;2022-10-29T05:23:34;12.30;99.90
12276;DHT22;6200;48.144;11.424;2022-10-29T05:26:00;12.20;99.90
12276;DHT22;6200;48.144;11.424;2022-10-29T05:28:25;12.30;99.90
12276;DHT22;6200;48.144;11.424;2022-10-29T05:30:52;12.30;99.90
12276;DHT22;6200;48.144;11.424;2022-10-29T05:33:19;12.30;99.90
12276;DHT22;6200;48.144;11.424;2022-10-29T05:35:46;12.30;99.90
12276;DHT22;6200;48.144;11.424;2022-10-29T05:38:12;12.30;99.90
12276;DHT22;6200;48.144;11.424;2022-10-29T05:40:38;12.40;99.90
12276;DHT22;6200;48.144;11.424;2022-10-29T05:43:04;12.40;99.90
12276;DHT22;6200;48.144;11.424;2022-10-29T05:45:30;12.40;99.90
12276;DHT22;6200;48.144;11.424;2022-10-29T05:48:00;12.50;99.90
12276;DHT22;6200;48.144;11.424;2022-10-29T05:50:27;12.50;99.90
12276;DHT22;6200;48.144;11.424;2022-10-29T05:53:01;12.50;99.90
12276;DHT22;6200;48.144;11.424;2022-10-29T05:55:29;12.50;99.90
12276;DHT22;6200;48.144;11.424;2022-10-29T05:57:59;12.50;99.90
12276;DHT22;6200;48.144;11.424;2022-10-29T06:00:27;12.50;99.90
12276;DHT22;6200;48.144;11.424;2022-10-29T06:02:53;12.60;99.90
12276;DHT22;6200;48.144;11.424;2022-10-29T06:05:19;12.60;99.90
12276;DHT22;6200;48.144;11.424;2022-10-29T06:07:45;12.60;99.90
12276;DHT22;6200;48.144;11.424;2022-10-29T06:10:10;12.60;99.90
12276;DHT22;6200;48.144;11.424;2022-10-29T06:12:36;12.60;99.90
12276;DHT22;6200;48.144;11.424;2022-10-29T06:15:01;12.60;99.90
12276;DHT22;6200;48.144;11.424;2022-10-29T06:17:27;12.60;99.90
12276;DHT22;6200;48.144;11.424;2022-10-29T06:19:53;12.70;99.90
12276;DHT22;6200;48.144;11.424;2022-10-29T06:22:18;12.70;99.90
12276;DHT22;6200;48.144;11.424;2022-10-29T06:24:44;12.70;99.90
12276;DHT22;6200;48.144;11.424;2022-10-29T06:27:09;12.70;99.90
12276;DHT22;6200;48.144;11.424;2022-10-29T06:29:35;12.70;99.90
12276;DHT22;6200;48.144;11.424;2022-10-29T06:32:00;12.70;99.90
12276;DHT22;6200;48.144;11.424;2022-10-29T06:34:26;12.80;99.90
12276;DHT22;6200;48.144;11.424;2022-10-29T06:36:51;12.80;99.90
12276;DHT22;6200;48.144;11.424;2022-10-29T06:39:17;12.90;99.90
12276;DHT22;6200;48.144;11.424;2022-10-29T06:41:42;13.00;99.90
12276;DHT22;6200;48.144;11.424;2022-10-29T06:44:08;13.00;99.90
12276;DHT22;6200;48.144;11.424;2022-10-29T06:46:33;13.00;99.90
12276;DHT22;6200;48.144;11.424;2022-10-29T06:49:00;13.10;99.90
12276;DHT22;6200;48.144;11.424;2022-10-29T06:51:27;13.20;99.90
12276;DHT22;6200;48.144;11.424;2022-10-29T06:53:52;13.20;99.90
12276;DHT22;6200;48.144;11.424;2022-10-29T06:56:19;13.30;99.90
12276;DHT22;6200;48.144;11.424;2022-10-29T06:58:45;13.40;99.90
12276;DHT22;6200;48.144;11.424;2022-10-29T07:01:10;13.40;99.90
12276;DHT22;6200;48.144;11.424;2022-10-29T07:03:36;13.50;99.90
12276;DHT22;6200;48.144;11.424;2022-10-29T07:06:01;13.60;99.90
12276;DHT22;6200;48.144;11.424;2022-10-29T07:08:27;13.70;99.90
12276;DHT22;6200;48.144;11.424;2022-10-29T07:10:53;13.80;99.90
12276;DHT22;6200;48.144;11.424;2022-10-29T07:13:19;13.80;99.90
12276;DHT22;6200;48.144;11.424;2022-10-29T07:15:45;13.90;99.90
12276;DHT22;6200;48.144;11.424;2022-10-29T07:18:11;14.00;99.90
12276;DHT22;6200;48.144;11.424;2022-10-29T07:20:39;14.10;99.90
12276;DHT22;6200;48.144;11.424;2022-10-29T07:23:05;14.10;99.90
12276;DHT22;6200;48.144;11.424;2022-10-29T07:25:32;14.20;99.90
12276;DHT22;6200;48.144;11.424;2022-10-29T07:28:11;14.30;99.90
12276;DHT22;6200;48.144;11.424;2022-10-29T07:30:37;14.30;99.90
12276;DHT22;6200;48.144;11.424;2022-10-29T07:33:03;14.40;99.90
12276;DHT22;6200;48.144;11.424;2022-10-29T07:35:29;14.50;99.90
12276;DHT22;6200;48.144;11.424;2022-10-29T07:37:58;14.50;99.90
12276;DHT22;6200;48.144;11.424;2022-10-29T07:40:24;14.60;99.90
12276;DHT22;6200;48.144;11.424;2022-10-29T07:42:53;14.60;99.90
12276;DHT22;6200;48.144;11.424;2022-10-29T07:45:19;14.60;99.90
12276;DHT22;6200;48.144;11.424;2022-10-29T07:47:45;14.70;99.90
12276;DHT22;6200;48.144;11.424;2022-10-29T07:50:11;14.70;99.90
12276;DHT22;6200;48.144;11.424;2022-10-29T07:52:39;14.80;99.90
12276;DHT22;6200;48.144;11.424;2022-10-29T07:55:06;14.80;99.90
12276;DHT22;6200;48.144;11.424;2022-10-29T07:57:32;14.90;99.90
12276;DHT22;6200;48.144;11.424;2022-10-29T07:59:57;15.00;99.90
12276;DHT22;6200;48.144;11.424;2022-10-29T08:02:23;15.10;99.90
12276;DHT22;6200;48.144;11.424;2022-10-29T08:04:48;15.20;99.90
12276;DHT22;6200;48.144;11.424;2022-10-29T08:07:14;15.30;99.90
12276;DHT22;6200;48.144;11.424;2022-10-29T08:09:40;15.40;99.90
12276;DHT22;6200;48.144;11.424;2022-10-29T08:12:08;15.50;99.90
12276;DHT22;6200;48.144;11.424;2022-10-29T08:14:34;15.60;99.90
12276;DHT22;6200;48.144;11.424;2022-10-29T08:16:59;15.70;99.90
12276;DHT22;6200;48.144;11.424;2022-10-29T08:19:25;15.80;99.90
12276;DHT22;6200;48.144;11.424;2022-10-29T08:21:50;15.90;99.90
12276;DHT22;6200;48.144;11.424;2022-10-29T08:24:16;16.00;99.90
12276;DHT22;6200;48.144;11.424;2022-10-29T08:26:41;16.10;99.90
12276;DHT22;6200;48.144;11.424;2022-10-29T08:29:07;16.10;99.90
12276;DHT22;6200;48.144;11.424;2022-10-29T08:31:32;16.20;99.90
12276;DHT22;6200;48.144;11.424;2022-10-29T08:33:58;16.30;99.90
12276;DHT22;6200;48.144;11.424;2022-10-29T08:36:24;16.30;99.90
12276;DHT22;6200;48.144;11.424;2022-10-29T08:38:49;16.40;99.90
12276;DHT22;6200;48.144;11.424;2022-10-29T08:41:35;16.50;99.90
12276;DHT22;6200;48.144;11.424;2022-10-29T08:46:57;16.70;99.90
12276;DHT22;6200;48.144;11.424;2022-10-29T08:49:36;16.70;99.90
12276;DHT22;6200;48.144;11.424;2022-10-29T08:52:21;16.80;99.90
12276;DHT22;6200;48.144;11.424;2022-10-29T08:55:18;16.90;99.90
12276;DHT22;6200;48.144;11.424;2022-10-29T08:57:49;17.00;99.90
12276;DHT22;6200;48.144;11.424;2022-10-29T09:00:21;17.10;99.90
12276;DHT22;6200;48.144;11.424;2022-10-29T09:02:57;17.20;99.90
12276;DHT22;6200;48.144;11.424;2022-10-29T09:05:29;17.40;99.90
12276;DHT22;6200;48.144;11.424;2022-10-29T09:10:53;17.60;99.90
12276;DHT22;6200;48.144;11.424;2022-10-29T09:13:37;17.80;99.90
12276;DHT22;6200;48.144;11.424;2022-10-29T09:16:35;17.90;99.90
12276;DHT22;6200;48.144;11.424;2022-10-29T09:19:20;18.10;99.90
12276;DHT22;6200;48.144;11.424;2022-10-29T09:27:12;18.80;99.90
12276;DHT22;6200;48.144;11.424;2022-10-29T09:30:05;19.00;99.90
12276;DHT22;6200;48.144;11.424;2022-10-29T09:33:18;19.20;99.90
12276;DHT22;6200;48.144;11.424;2022-10-29T09:35:52;19.40;99.90
12276;DHT22;6200;48.144;11.424;2022-10-29T09:40:46;19.90;99.90
12276;DHT22;6200;48.144;11.424;2022-10-29T09:43:31;20.00;99.90
12276;DHT22;6200;48.144;11.424;2022-10-29T09:54:13;20.90;98.30
12276;DHT22;6200;48.144;11.424;2022-10-29T09:56:42;21.10;99.10
12276;DHT22;6200;48.144;11.424;2022-10-29T10:01:49;21.70;98.70
12276;DHT22;6200;48.144;11.424;2022-10-29T10:04:39;22.00;96.80
12276;DHT22;6200;48.144;11.424;2022-10-29T10:07:09;22.30;98.70
12276;DHT22;6200;48.144;11.424;2022-10-29T10:09:58;22.50;96.30
12276;DHT22;6200;48.144;11.424;2022-10-29T10:12:49;22.60;95.80
12276;DHT22;6200;48.144;11.424;2022-10-29T10:18:05;22.70;95.30
12276;DHT22;6200;48.144;11.424;2022-10-29T10:20:38;22.80;94.50
12276;DHT22;6200;48.144;11.424;2022-10-29T10:23:23;23.10;93.60
12276;DHT22;6200;48.144;11.424;2022-10-29T10:25:51;23.40;94.60
12276;DHT22;6200;48.144;11.424;2022-10-29T10:28:26;23.60;94.80
12276;DHT22;6200;48.144;11.424;2022-10-29T10:33:30;24.10;90.60
12276;DHT22;6200;48.144;11.424;2022-10-29T10:36:04;24.20;89.50
12276;DHT22;6200;48.144;11.424;2022-10-29T10:38:49;24.30;87.60
12276;DHT22;6200;48.144;11.424;2022-10-29T10:41:22;24.40;88.20
12276;DHT22;6200;48.144;11.424;2022-10-29T10:43:48;24.40;88.40
12276;DHT22;6200;48.144;11.424;2022-10-29T10:47:03;24.40;87.60
12276;DHT22;6200;48.144;11.424;2022-10-29T10:49:12;24.40;84.10
12276;DHT22;6200;48.144;11.424;2022-10-29T10:51:42;24.40;83.60
12276;DHT22;6200;48.144;11.424;2022-10-29T10:59:45;24.50;85.80
12276;DHT22;6200;48.144;11.424;2022-10-29T11:05:36;24.70;86.50
12276;DHT22;6200;48.144;11.424;2022-10-29T11:08:27;24.70;87.30
12276;DHT22;6200;48.144;11.424;2022-10-29T11:11:18;24.70;87.40
12276;DHT22;6200;48.144;11.424;2022-10-29T11:13:48;24.80;83.00
12276;DHT22;6200;48.144;11.424;2022-10-29T11:16:51;25.00;81.40
12276;DHT22;6200;48.144;11.424;2022-10-29T11:19:37;24.80;81.80
12276;DHT22;6200;48.144;11.424;2022-10-29T11:22:11;24.90;85.10
12276;DHT22;6200;48.144;11.424;2022-10-29T11:24:47;24.90;80.10
12276;DHT22;6200;48.144;11.424;2022-10-29T11:27:36;25.20;77.70
12276;DHT22;6200;48.144;11.424;2022-10-29T11:30:05;25.30;78.40
12276;DHT22;6200;48.144;11.424;2022-10-29T11:38:32;25.50;78.50
12276;DHT22;6200;48.144;11.424;2022-10-29T11:41:09;25.60;76.40
12276;DHT22;6200;48.144;11.424;2022-10-29T11:43:36;25.80;78.90
12276;DHT22;6200;48.144;11.424;2022-10-29T11:46:17;25.80;80.10
12276;DHT22;6200;48.144;11.424;2022-10-29T11:54:49;25.70;80.90
12276;DHT22;6200;48.144;11.424;2022-10-29T11:57:24;25.80;74.80
12276;DHT22;6200;48.144;11.424;2022-10-29T12:00:14;25.90;75.90
12276;DHT22;6200;48.144;11.424;2022-10-29T12:08:47;26.60;75.50
12276;DHT22;6200;48.144;11.424;2022-10-29T12:11:38;26.10;78.20
12276;DHT22;6200;48.144;11.424;2022-10-29T12:19:57;26.20;75.20
12276;DHT22;6200;48.144;11.424;2022-10-29T12:22:36;26.30;73.20
12276;DHT22;6200;48.144;11.424;2022-10-29T12:25:20;26.40;77.70
12276;DHT22;6200;48.144;11.424;2022-10-29T12:28:09;26.30;74.40
12276;DHT22;6200;48.144;11.424;2022-10-29T12:30:52;26.50;71.50
12276;DHT22;6200;48.144;11.424;2022-10-29T12:33:25;26.60;71.60
12276;DHT22;6200;48.144;11.424;2022-10-29T12:36:09;26.50;73.40
12276;DHT22;6200;48.144;11.424;2022-10-29T12:38:48;26.40;75.00
12276;DHT22;6200;48.144;11.424;2022-10-29T12:41:34;26.30;76.40
12276;DHT22;6200;48.144;11.424;2022-10-29T12:47:05;26.10;78.80
12276;DHT22;6200;48.144;11.424;2022-10-29T12:49:50;26.10;74.20
12276;DHT22;6200;48.144;11.424;2022-10-29T12:52:28;26.10;74.70
12276;DHT22;6200;48.144;11.424;2022-10-29T12:54:57;26.10;76.30
12276;DHT22;6200;48.144;11.424;2022-10-29T12:57:33;26.00;77.20
12276;DHT22;6200;48.144;11.424;2022-10-29T13:03:02;25.90;73.60
12276;DHT22;6200;48.144;11.424;2022-10-29T13:05:42;25.90;72.20
12276;DHT22;6200;48.144;11.424;2022-10-29T13:08:10;25.90;73.20
12276;DHT22;6200;48.144;11.424;2022-10-29T13:10:51;25.90;75.00
12276;DHT22;6200;48.144;11.424;2022-10-29T13:13:21;25.80;80.70
12276;DHT22;6200;48.144;11.424;2022-10-29T13:16:00;25.60;79.00
12276;DHT22;6200;48.144;11.424;2022-10-29T13:21:04;25.70;74.10
12276;DHT22;6200;48.144;11.424;2022-10-29T13:23:34;25.70;72.90
12276;DHT22;6200;48.144;11.424;2022-10-29T13:26:01;25.60;72.20
12276;DHT22;6200;48.144;11.424;2022-10-29T13:36:04;25.60;75.00
12276;DHT22;6200;48.144;11.424;2022-10-29T13:41:12;25.40;79.10
12276;DHT22;6200;48.144;11.424;2022-10-29T13:43:40;25.30;78.60
12276;DHT22;6200;48.144;11.424;2022-10-29T13:48:39;25.10;78.90
12276;DHT22;6200;48.144;11.424;2022-10-29T13:51:07;25.00;79.60
12276;DHT22;6200;48.144;11.424;2022-10-29T13:53:46;25.00;80.70
12276;DHT22;6200;48.144;11.424;2022-10-29T13:56:33;24.90;83.30
12276;DHT22;6200;48.144;11.424;2022-10-29T13:59:01;24.90;84.50
12276;DHT22;6200;48.144;11.424;2022-10-29T14:01:31;24.90;84.50
12276;DHT22;6200;48.144;11.424;2022-10-29T14:04:21;24.90;85.60
12276;DHT22;6200;48.144;11.424;2022-10-29T14:06:50;24.80;85.70
12276;DHT22;6200;48.144;11.424;2022-10-29T14:09:36;24.70;87.50
12276;DHT22;6200;48.144;11.424;2022-10-29T14:12:08;24.50;87.30
12276;DHT22;6200;48.144;11.424;2022-10-29T14:17:15;24.40;89.30
12276;DHT22;6200;48.144;11.424;2022-10-29T14:19:46;24.30;87.70
12276;DHT22;6200;48.144;11.424;2022-10-29T14:22:36;24.20;89.70
12276;DHT22;6200;48.144;11.424;2022-10-29T14:28:16;24.10;90.00
12276;DHT22;6200;48.144;11.424;2022-10-29T14:30:46;24.00;88.00
12276;DHT22;6200;48.144;11.424;2022-10-29T14:35:44;24.00;90.50
12276;DHT22;6200;48.144;11.424;2022-10-29T14:38:11;23.90;90.90
12276;DHT22;6200;48.144;11.424;2022-10-29T14:40:37;23.90;91.40
12276;DHT22;6200;48.144;11.424;2022-10-29T14:43:03;23.80;91.40
12276;DHT22;6200;48.144;11.424;2022-10-29T14:45:30;23.70;91.40
12276;DHT22;6200;48.144;11.424;2022-10-29T14:47:57;23.70;91.90
12276;DHT22;6200;48.144;11.424;2022-10-29T14:50:28;23.60;93.00
12276;DHT22;6200;48.144;11.424;2022-10-29T14:53:05;23.50;93.20
12276;DHT22;6200;48.144;11.424;2022-10-29T14:55:45;23.40;93.60
12276;DHT22;6200;48.144;11.424;2022-10-29T14:58:19;23.30;94.30
12276;DHT22;6200;48.144;11.424;2022-10-29T15:01:02;23.20;94.10
12276;DHT22;6200;48.144;11.424;2022-10-29T15:03:32;23.20;94.00
12276;DHT22;6200;48.144;11.424;2022-10-29T15:06:19;23.10;95.10
12276;DHT22;6200;48.144;11.424;2022-10-29T15:08:59;22.90;95.60
12276;DHT22;6200;48.144;11.424;2022-10-29T15:13:59;22.70;96.70
12276;DHT22;6200;48.144;11.424;2022-10-29T15:16:26;22.60;96.60
12276;DHT22;6200;48.144;11.424;2022-10-29T15:18:52;22.60;96.90
12276;DHT22;6200;48.144;11.424;2022-10-29T15:21:24;22.50;97.00
12276;DHT22;6200;48.144;11.424;2022-10-29T15:24:01;22.40;97.00
12276;DHT22;6200;48.144;11.424;2022-10-29T15:26:28;22.30;97.80
12276;DHT22;6200;48.144;11.424;2022-10-29T15:28:55;22.10;98.00
12276;DHT22;6200;48.144;11.424;2022-10-29T15:31:32;22.10;98.20
12276;DHT22;6200;48.144;11.424;2022-10-29T15:34:06;22.00;98.00
12276;DHT22;6200;48.144;11.424;2022-10-29T15:36:52;21.90;97.80
12276;DHT22;6200;48.144;11.424;2022-10-29T15:39:28;21.80;97.40
12276;DHT22;6200;48.144;11.424;2022-10-29T15:42:00;21.70;97.70
12276;DHT22;6200;48.144;11.424;2022-10-29T15:44:28;21.60;97.70
12276;DHT22;6200;48.144;11.424;2022-10-29T15:46:56;21.50;98.20
12276;DHT22;6200;48.144;11.424;2022-10-29T15:49:26;21.30;98.50
12276;DHT22;6200;48.144;11.424;2022-10-29T15:51:53;21.30;98.80
12276;DHT22;6200;48.144;11.424;2022-10-29T15:54:19;21.10;98.50
12276;DHT22;6200;48.144;11.424;2022-10-29T15:56:45;21.00;98.50
12276;DHT22;6200;48.144;11.424;2022-10-29T15:59:12;20.90;99.30
12276;DHT22;6200;48.144;11.424;2022-10-29T16:01:39;20.80;99.90
12276;DHT22;6200;48.144;11.424;2022-10-29T16:04:04;20.60;99.90
12276;DHT22;6200;48.144;11.424;2022-10-29T16:06:30;20.60;99.90
12276;DHT22;6200;48.144;11.424;2022-10-29T16:08:57;20.50;99.90
12276;DHT22;6200;48.144;11.424;2022-10-29T16:11:24;20.40;99.90
12276;DHT22;6200;48.144;11.424;2022-10-29T16:13:50;20.20;99.90
12276;DHT22;6200;48.144;11.424;2022-10-29T16:16:19;20.10;99.90
12276;DHT22;6200;48.144;11.424;2022-10-29T16:18:45;20.00;99.90
12276;DHT22;6200;48.144;11.424;2022-10-29T16:21:18;19.90;99.90
12276;DHT22;6200;48.144;11.424;2022-10-29T16:23:44;19.80;99.90
12276;DHT22;6200;48.144;11.424;2022-10-29T16:26:22;19.80;99.90
12276;DHT22;6200;48.144;11.424;2022-10-29T16:28:47;19.70;99.90
12276;DHT22;6200;48.144;11.424;2022-10-29T16:31:20;19.60;99.90
12276;DHT22;6200;48.144;11.424;2022-10-29T16:33:48;19.50;99.90
12276;DHT22;6200;48.144;11.424;2022-10-29T16:36:14;19.50;99.90
12276;DHT22;6200;48.144;11.424;2022-10-29T16:38:40;19.40;99.90
12276;DHT22;6200;48.144;11.424;2022-10-29T16:41:05;19.40;99.90
12276;DHT22;6200;48.144;11.424;2022-10-29T16:43:31;19.30;99.90
12276;DHT22;6200;48.144;11.424;2022-10-29T16:45:57;19.20;99.90
12276;DHT22;6200;48.144;11.424;2022-10-29T16:48:22;19.10;99.90
12276;DHT22;6200;48.144;11.424;2022-10-29T16:50:48;19.10;99.90
12276;DHT22;6200;48.144;11.424;2022-10-29T16:53:13;19.00;99.90
12276;DHT22;6200;48.144;11.424;2022-10-29T16:55:39;18.90;99.90
12276;DHT22;6200;48.144;11.424;2022-10-29T16:58:13;18.80;99.90
12276;DHT22;6200;48.144;11.424;2022-10-29T17:00:39;18.80;99.90
12276;DHT22;6200;48.144;11.424;2022-10-29T17:03:05;18.70;99.90
12276;DHT22;6200;48.144;11.424;2022-10-29T17:05:34;18.60;99.90
12276;DHT22;6200;48.144;11.424;2022-10-29T17:08:00;18.60;99.90
12276;DHT22;6200;48.144;11.424;2022-10-29T17:10:26;18.50;99.90
12276;DHT22;6200;48.144;11.424;2022-10-29T17:12:51;18.40;99.90
12276;DHT22;6200;48.144;11.424;2022-10-29T17:15:17;18.30;99.90
12276;DHT22;6200;48.144;11.424;2022-10-29T17:17:42;18.30;99.90
12276;DHT22;6200;48.144;11.424;2022-10-29T17:20:08;18.20;99.90
12276;DHT22;6200;48.144;11.424;2022-10-29T17:22:34;18.20;99.90
12276;DHT22;6200;48.144;11.424;2022-10-29T17:24:59;18.10;99.90
12276;DHT22;6200;48.144;11.424;2022-10-29T17:27:25;18.10;99.90
12276;DHT22;6200;48.144;11.424;2022-10-29T17:29:50;18.00;99.90
12276;DHT22;6200;48.144;11.424;2022-10-29T17:32:16;17.90;99.90
12276;DHT22;6200;48.144;11.424;2022-10-29T17:34:42;17.80;99.90
12276;DHT22;6200;48.144;11.424;2022-10-29T17:37:07;17.80;99.90
12276;DHT22;6200;48.144;11.424;2022-10-29T17:39:33;17.80;99.90
12276;DHT22;6200;48.144;11.424;2022-10-29T17:41:59;17.60;99.90
12276;DHT22;6200;48.144;11.424;2022-10-29T17:44:25;17.60;99.90